createdAt,value
2023-04-18T00:00:09.299Z,30.24
2023-04-18T00:01:09.316Z,29.22
2023-04-18T00:02:09.420Z,27.81
2023-04-18T00:03:09.573Z,33.17
2023-04-18T00:04:09.492Z,32.78
2023-04-18T00:05:09.430Z,26.65
2023-04-18T00:06:09.336Z,32.66
2023-04-18T00:07:09.424Z,31.68
2023-04-18T00:08:09.520Z,33.32
2023-04-18T00:09:09.629Z,28.96
2023-04-18T00:10:09.584Z,33.25
2023-04-18T00:11:09.605Z,29.21
2023-04-18T00:12:09.597Z,29.53
2023-04-18T00:13:09.615Z,32.65
2023-04-18T00:14:09.613Z,26.22
2023-04-18T00:15:09.641Z,31.54
2023-04-18T00:16:09.708Z,31.99
2023-04-18T00:17:09.786Z,27.72
2023-04-18T00:18:09.697Z,27.80
2023-04-18T00:19:09.706Z,31.53
2023-04-18T00:20:09.707Z,32.01
2023-04-18T00:21:09.797Z,25.51
2023-04-18T00:22:09.894Z,31.10
2023-04-18T00:23:12.138Z,30.80
2023-04-18T00:24:09.988Z,32.78
2023-04-18T00:25:09.955Z,30.94
2023-04-18T00:26:09.979Z,32.32
2023-04-18T00:27:09.981Z,28.23
2023-04-18T00:28:09.935Z,27.03
2023-04-18T00:29:09.923Z,30.41
2023-04-18T00:30:09.944Z,25.33
2023-04-18T00:31:09.977Z,25.67
2023-04-18T00:32:09.905Z,31.96
2023-04-18T00:33:09.913Z,27.91
2023-04-18T00:34:09.898Z,33.22
2023-04-18T00:35:09.914Z,30.63
2023-04-18T00:36:09.893Z,30.33
2023-04-18T00:37:09.922Z,28.70
2023-04-18T00:38:09.879Z,29.39
2023-04-18T00:39:09.902Z,33.00
2023-04-18T00:40:09.853Z,31.33
2023-04-18T00:41:09.865Z,28.42
2023-04-18T00:42:09.874Z,32.80
2023-04-18T00:43:09.836Z,29.17
2023-04-18T00:44:09.890Z,31.96
2023-04-18T00:45:09.837Z,29.19
2023-04-18T00:46:09.897Z,29.18
2023-04-18T00:47:09.853Z,28.23
2023-04-18T00:48:09.811Z,32.02
2023-04-18T00:49:09.828Z,31.02
2023-04-18T00:50:09.847Z,32.54
2023-04-18T00:51:09.818Z,31.04
2023-04-18T00:52:09.773Z,31.73
2023-04-18T00:53:09.797Z,31.61
2023-04-18T00:54:09.790Z,31.94
2023-04-18T00:55:09.782Z,31.03
2023-04-18T00:56:09.763Z,30.57
2023-04-18T00:57:09.730Z,28.79
2023-04-18T00:58:09.780Z,28.99
2023-04-18T00:59:09.728Z,31.41
2023-04-18T01:00:09.785Z,27.08
2023-04-18T01:01:09.789Z,26.19
2023-04-18T01:02:09.753Z,29.86
2023-04-18T01:03:09.793Z,28.76
2023-04-18T01:04:09.851Z,32.15
2023-04-18T01:05:09.721Z,29.77
2023-04-18T01:06:09.683Z,27.03
2023-04-18T01:07:09.707Z,33.31
2023-04-18T01:08:09.698Z,32.04
2023-04-18T01:09:09.686Z,32.05
2023-04-18T01:10:09.684Z,29.65
2023-04-18T01:11:09.705Z,30.82
2023-04-18T01:12:09.675Z,31.17
2023-04-18T01:13:09.624Z,31.07
2023-04-18T01:14:09.655Z,33.19
2023-04-18T01:15:09.647Z,31.79
2023-04-18T01:16:09.801Z,25.60
2023-04-18T01:17:09.631Z,28.16
2023-04-18T01:18:09.664Z,29.07
2023-04-18T01:19:09.609Z,32.16
2023-04-18T01:20:09.621Z,29.72
2023-04-18T01:21:09.589Z,29.21
2023-04-18T01:22:09.609Z,26.83
2023-04-18T01:23:09.554Z,29.47
2023-04-18T01:24:09.581Z,28.14
2023-04-18T01:25:09.594Z,28.88
2023-04-18T01:26:09.553Z,28.22
2023-04-18T01:27:09.539Z,28.40
2023-04-18T01:28:09.558Z,28.23
2023-04-18T01:29:09.560Z,30.71
2023-04-18T01:30:09.550Z,28.89
2023-04-18T01:31:09.520Z,30.08
2023-04-18T01:32:09.495Z,29.09
2023-04-18T01:33:09.511Z,32.02
2023-04-18T01:34:09.501Z,32.62
2023-04-18T01:35:09.566Z,26.63
2023-04-18T01:36:09.494Z,29.38
2023-04-18T01:37:09.464Z,29.21
2023-04-18T01:38:09.456Z,31.07
2023-04-18T01:39:09.513Z,30.66
2023-04-18T01:40:09.482Z,29.53
2023-04-18T01:41:09.443Z,26.94
2023-04-18T01:42:09.461Z,29.21
2023-04-18T01:43:09.452Z,25.00
2023-04-18T01:44:09.418Z,27.83
2023-04-18T01:45:09.436Z,32.09
2023-04-18T01:46:09.435Z,27.12
2023-04-18T01:47:09.392Z,29.55
2023-04-18T01:48:09.399Z,31.57
2023-04-18T01:49:09.393Z,33.39
2023-04-18T01:50:09.402Z,25.17
2023-04-18T01:51:09.492Z,32.14
2023-04-18T01:52:09.395Z,26.17
2023-04-18T01:53:09.379Z,30.51
2023-04-18T01:54:09.386Z,27.71
2023-04-18T01:55:09.396Z,31.48
2023-04-18T01:56:09.388Z,27.59
2023-04-18T01:57:09.386Z,30.64
2023-04-18T01:58:09.381Z,29.20
2023-04-18T01:59:09.343Z,31.96
2023-04-18T02:00:09.363Z,29.09
2023-04-18T02:01:09.342Z,34.25
2023-04-18T02:02:09.391Z,31.19
2023-04-18T02:03:09.473Z,30.85
2023-04-18T02:04:09.346Z,31.77
2023-04-18T02:05:09.319Z,31.52
2023-04-18T02:06:09.313Z,29.47
2023-04-18T02:07:09.289Z,34.55
2023-04-18T02:08:09.275Z,27.89
2023-04-18T02:09:09.259Z,32.59
2023-04-18T02:10:09.268Z,29.42
2023-04-18T02:11:09.282Z,26.70
2023-04-18T02:12:09.256Z,31.91
2023-04-18T02:13:09.273Z,27.07
2023-04-18T02:14:09.262Z,28.81
2023-04-18T02:15:09.219Z,30.05
2023-04-18T02:16:09.259Z,32.87
2023-04-18T02:17:09.204Z,28.52
2023-04-18T02:18:09.216Z,31.99
2023-04-18T02:19:09.215Z,31.14
2023-04-18T02:20:09.231Z,27.01
2023-04-18T02:21:09.218Z,31.95
2023-04-18T02:22:09.212Z,32.84
2023-04-18T02:23:09.172Z,26.48
2023-04-18T02:24:09.206Z,32.76
2023-04-18T02:25:09.207Z,30.50
2023-04-18T02:26:09.176Z,30.35
2023-04-18T02:27:09.141Z,32.47
2023-04-18T02:28:09.147Z,30.94
2023-04-18T02:29:09.122Z,30.09
2023-04-18T02:30:09.140Z,32.85
2023-04-18T02:31:09.120Z,25.00
2023-04-18T02:32:09.259Z,35.22
2023-04-18T02:33:09.135Z,29.29
2023-04-18T02:34:09.142Z,29.99
2023-04-18T02:35:09.137Z,31.02
2023-04-18T02:36:09.092Z,31.69
2023-04-18T02:37:09.098Z,26.82
2023-04-18T02:38:09.086Z,33.34
2023-04-18T02:39:09.085Z,33.67
2023-04-18T02:40:09.095Z,29.87
2023-04-18T02:41:09.088Z,27.69
2023-04-18T02:42:09.064Z,32.57
2023-04-18T02:43:09.043Z,31.66
2023-04-18T02:44:09.017Z,28.09
2023-04-18T02:45:09.037Z,32.87
2023-04-18T02:46:09.104Z,30.39
2023-04-18T02:47:09.042Z,29.30
2023-04-18T02:48:09.060Z,30.44
2023-04-18T02:49:08.996Z,25.66
2023-04-18T02:50:09.002Z,29.82
2023-04-18T02:51:08.989Z,31.14
2023-04-18T02:52:08.999Z,33.88
2023-04-18T02:53:08.993Z,35.04
2023-04-18T02:54:09.028Z,31.68
2023-04-18T02:55:08.978Z,29.46
2023-04-18T02:56:08.955Z,31.67
2023-04-18T02:57:08.975Z,31.66
2023-04-18T02:58:08.983Z,28.06
2023-04-18T02:59:08.991Z,31.03
2023-04-18T03:00:08.949Z,34.72
2023-04-18T03:01:08.988Z,34.05
2023-04-18T03:02:09.001Z,32.77
2023-04-18T03:03:08.964Z,30.39
2023-04-18T03:04:08.923Z,31.25
2023-04-18T03:05:09.002Z,30.40
2023-04-18T03:06:08.891Z,29.31
2023-04-18T03:07:08.888Z,31.56
2023-04-18T03:08:08.908Z,29.32
2023-04-18T03:09:08.909Z,29.03
2023-04-18T03:10:08.883Z,29.37
2023-04-18T03:11:08.866Z,31.34
2023-04-18T03:12:08.960Z,26.46
2023-04-18T03:13:08.994Z,28.57
2023-04-18T03:14:08.994Z,31.14
2023-04-18T03:15:08.984Z,33.17
2023-04-18T03:16:09.018Z,30.22
2023-04-18T03:17:08.953Z,29.62
2023-04-18T03:18:09.158Z,33.23
2023-04-18T03:19:09.153Z,30.20
2023-04-18T03:20:09.273Z,32.28
2023-04-18T03:21:09.347Z,30.14
2023-04-18T03:22:09.450Z,32.28
2023-04-18T03:23:09.549Z,27.94
2023-04-18T03:24:10.896Z,29.75
2023-04-18T03:25:09.683Z,32.19
2023-04-18T03:26:09.800Z,30.09
2023-04-18T03:27:09.668Z,32.88
2023-04-18T03:28:09.656Z,31.52
2023-04-18T03:29:52.764Z,25.00
2023-04-18T03:30:52.903Z,25.00
2023-04-18T03:31:52.812Z,25.00
2023-04-18T03:32:52.994Z,25.00
2023-04-18T03:33:52.899Z,25.00
2023-04-18T03:34:52.903Z,28.76
2023-04-18T03:35:52.860Z,28.74
2023-04-18T03:36:52.873Z,30.50
2023-04-18T03:37:52.868Z,28.65
2023-04-18T03:38:52.879Z,26.20
2023-04-18T03:39:52.867Z,27.62
2023-04-18T03:40:52.850Z,26.47
2023-04-18T03:41:52.807Z,30.22
2023-04-18T03:42:52.824Z,29.72
2023-04-18T03:43:52.827Z,29.88
2023-04-18T03:44:52.873Z,25.00
2023-04-18T03:45:52.873Z,28.11
2023-04-18T03:46:52.814Z,29.41
2023-04-18T03:47:52.832Z,31.52
2023-04-18T03:48:52.781Z,31.53
2023-04-18T03:49:52.790Z,31.25
2023-04-18T03:50:52.744Z,28.16
2023-04-18T03:51:52.805Z,27.50
2023-04-18T03:52:52.769Z,32.32
2023-04-18T03:53:52.747Z,25.19
2023-04-18T03:54:52.758Z,28.42
2023-04-18T03:55:52.721Z,32.08
2023-04-18T03:56:52.744Z,27.32
2023-04-18T03:57:52.707Z,27.46
2023-04-18T03:58:52.761Z,27.14
2023-04-18T03:59:52.713Z,30.52
2023-04-18T04:00:52.701Z,30.16
2023-04-18T04:01:52.812Z,30.07
2023-04-18T04:02:52.873Z,33.37
2023-04-18T04:03:52.869Z,34.66
2023-04-18T04:04:52.808Z,30.06
2023-04-18T04:05:52.678Z,34.66
2023-04-18T04:06:52.661Z,32.44
2023-04-18T04:07:52.651Z,33.18
2023-04-18T04:08:52.649Z,30.27
2023-04-18T04:09:52.664Z,33.58
2023-04-18T04:10:52.679Z,28.07
2023-04-18T04:11:52.716Z,29.75
2023-04-18T04:12:52.643Z,31.80
2023-04-18T04:13:52.674Z,31.48
2023-04-18T04:14:52.619Z,29.02
2023-04-18T04:15:52.626Z,32.72
2023-04-18T04:16:52.824Z,29.54
2023-04-18T04:17:52.720Z,31.13
2023-04-18T04:18:52.639Z,30.19
2023-04-18T04:19:52.584Z,32.87
2023-04-18T04:20:52.591Z,29.78
2023-04-18T04:21:52.602Z,27.19
2023-04-18T04:22:52.584Z,34.75
2023-04-18T04:23:52.577Z,31.19
2023-04-18T04:24:52.571Z,29.66
2023-04-18T04:25:52.564Z,30.53
2023-04-18T04:26:52.567Z,31.75
2023-04-18T04:27:52.549Z,29.19
2023-04-18T04:28:52.530Z,28.28
2023-04-18T04:29:52.565Z,28.57
2023-04-18T04:30:52.523Z,27.67
2023-04-18T04:31:52.536Z,28.37
2023-04-18T04:32:52.582Z,32.69
2023-04-18T04:33:52.522Z,30.75
2023-04-18T04:34:52.509Z,27.93
2023-04-18T04:35:52.516Z,32.68
2023-04-18T04:36:52.496Z,27.38
2023-04-18T04:37:52.486Z,29.53
2023-04-18T04:38:52.474Z,31.75
2023-04-18T04:39:52.539Z,30.30
2023-04-18T04:40:52.462Z,33.06
2023-04-18T04:41:52.466Z,13.88
2023-04-18T04:42:52.452Z,35.62
2023-04-18T04:43:52.459Z,37.46
2023-04-18T04:44:52.474Z,41.32
2023-04-18T04:45:52.488Z,42.71
2023-04-18T04:46:52.425Z,44.01
2023-04-18T04:47:52.434Z,43.71
2023-04-18T04:48:52.412Z,42.36
2023-04-18T04:49:52.396Z,42.36
2023-04-18T04:50:52.408Z,42.60
2023-04-18T04:51:52.415Z,41.41
2023-04-18T04:52:52.397Z,42.17
2023-04-18T04:53:52.372Z,40.94
2023-04-18T04:54:52.360Z,38.30
2023-04-18T04:55:52.351Z,40.95
2023-04-18T04:56:52.354Z,40.60
2023-04-18T04:57:52.329Z,41.81
2023-04-18T04:58:52.338Z,41.28
2023-04-18T04:59:52.426Z,43.73
2023-04-18T05:00:52.414Z,39.64
2023-04-18T05:01:52.487Z,42.61
2023-04-18T05:02:52.420Z,33.03
2023-04-18T05:03:52.413Z,40.60
2023-04-18T05:04:52.324Z,40.50
2023-04-18T05:05:52.288Z,38.27
2023-04-18T05:06:52.300Z,39.12
2023-04-18T05:07:52.279Z,37.39
2023-04-18T05:08:52.284Z,41.01
2023-04-18T05:09:52.275Z,42.16
2023-04-18T05:10:52.242Z,39.17
2023-04-18T05:11:52.267Z,39.50
2023-04-18T05:12:52.214Z,39.25
2023-04-18T05:13:52.234Z,40.47
2023-04-18T05:14:52.334Z,38.50
2023-04-18T05:15:52.236Z,39.55
2023-04-18T05:16:52.252Z,40.58
2023-04-18T05:17:52.242Z,42.91
2023-04-18T05:18:52.205Z,40.41
2023-04-18T05:19:52.192Z,39.99
2023-04-18T05:20:52.216Z,40.02
2023-04-18T05:21:52.186Z,39.64
2023-04-18T05:22:52.178Z,40.87
2023-04-18T05:23:52.152Z,35.78
2023-04-18T05:24:52.961Z,38.55
2023-04-18T05:25:52.145Z,41.10
2023-04-18T05:26:52.125Z,38.19
2023-04-18T05:27:52.157Z,38.44
2023-04-18T05:28:52.118Z,36.75
2023-04-18T05:29:52.130Z,37.69
2023-04-18T05:30:52.170Z,37.27
2023-04-18T05:31:52.103Z,35.43
2023-04-18T05:32:52.238Z,37.93
2023-04-18T05:33:52.102Z,35.97
2023-04-18T05:34:52.087Z,38.30
2023-04-18T05:35:52.090Z,37.49
2023-04-18T05:36:52.128Z,41.11
2023-04-18T05:37:52.138Z,40.90
2023-04-18T05:38:52.085Z,41.19
2023-04-18T05:39:52.202Z,40.76
2023-04-18T05:40:52.302Z,42.33
2023-04-18T05:41:52.419Z,45.40
2023-04-18T05:42:52.480Z,52.78
2023-04-18T05:44:02.348Z,54.85
2023-04-18T05:44:53.584Z,55.21
2023-04-18T05:45:52.802Z,56.30
2023-04-18T05:46:52.570Z,60.78
2023-04-18T05:47:52.894Z,69.98
2023-04-18T05:48:52.557Z,80.10
2023-04-18T05:49:52.568Z,88.66
2023-04-18T05:50:52.553Z,95.98
2023-04-18T05:51:52.527Z,95.50
2023-04-18T05:52:52.542Z,90.05
2023-04-18T05:53:52.517Z,82.13
2023-04-18T05:54:52.536Z,76.09
2023-04-18T05:55:52.509Z,68.59
2023-04-18T05:56:52.511Z,65.35
2023-04-18T05:57:52.524Z,59.71
2023-04-18T05:58:52.489Z,52.22
2023-04-18T05:59:52.492Z,39.44
2023-04-18T06:00:52.479Z,36.36
2023-04-18T06:01:52.510Z,40.60
2023-04-18T06:02:52.712Z,46.99
2023-04-18T06:03:52.750Z,50.33
2023-04-18T06:04:52.755Z,56.20
2023-04-18T06:05:52.712Z,57.38
2023-04-18T06:06:52.768Z,62.10
2023-04-18T06:07:52.778Z,73.15
2023-04-18T06:08:52.733Z,78.10
2023-04-18T06:09:52.772Z,79.86
2023-04-18T06:10:52.779Z,90.26
2023-04-18T06:11:52.849Z,97.20
2023-04-18T06:12:52.826Z,102.28
2023-04-18T06:13:52.818Z,111.06
2023-04-18T06:14:52.839Z,115.88
2023-04-18T06:15:52.862Z,126.52
2023-04-18T06:16:52.921Z,132.10
2023-04-18T06:17:52.938Z,135.77
2023-04-18T06:18:52.888Z,143.05
2023-04-18T06:19:52.975Z,153.76
2023-04-18T06:20:52.972Z,160.11
2023-04-18T06:21:53.029Z,166.31
2023-04-18T06:22:53.094Z,172.68
2023-04-18T06:23:53.172Z,176.17
2023-04-18T06:24:53.215Z,180.68
2023-04-18T06:25:53.264Z,188.34
2023-04-18T06:26:54.441Z,194.26
2023-04-18T06:27:53.389Z,203.85
2023-04-18T06:28:53.433Z,240.14
2023-04-18T06:29:53.985Z,250.00
2023-04-18T06:30:53.555Z,249.49
2023-04-18T06:31:53.603Z,246.41
2023-04-18T06:32:53.730Z,246.69
2023-04-18T06:33:53.728Z,249.52
2023-04-18T06:34:53.728Z,248.91
2023-04-18T06:35:53.798Z,246.73
2023-04-18T06:36:53.862Z,246.35
2023-04-18T06:37:53.892Z,247.68
2023-04-18T06:38:53.925Z,248.50
2023-04-18T06:39:53.947Z,248.93
2023-04-18T06:40:53.971Z,250.00
2023-04-18T06:41:53.996Z,249.35
2023-04-18T06:42:54.047Z,250.00
2023-04-18T06:44:03.726Z,247.13
2023-04-18T06:44:55.487Z,247.38
2023-04-18T06:45:54.183Z,248.36
2023-04-18T06:46:54.085Z,249.58
2023-04-18T06:47:54.098Z,251.07
2023-04-18T06:48:54.079Z,258.05
2023-04-18T06:49:54.093Z,246.76
2023-04-18T06:50:54.055Z,221.94
2023-04-18T06:51:54.037Z,189.75
2023-04-18T06:52:54.035Z,157.97
2023-04-18T06:53:54.036Z,153.24
2023-04-18T06:54:54.018Z,154.56
2023-04-18T06:55:54.007Z,148.68
2023-04-18T06:56:54.032Z,195.09
2023-04-18T06:57:54.035Z,179.85
2023-04-18T06:58:54.002Z,156.43
2023-04-18T06:59:53.991Z,153.08
2023-04-18T07:00:54.025Z,158.64
2023-04-18T07:01:54.395Z,153.61
2023-04-18T07:02:54.209Z,145.77
2023-04-18T07:03:54.129Z,143.24
2023-04-18T07:04:54.093Z,138.43
2023-04-18T07:05:54.152Z,140.88
2023-04-18T07:06:54.153Z,138.58
2023-04-18T07:07:54.147Z,134.63
2023-04-18T07:08:54.550Z,133.71
2023-04-18T07:09:54.220Z,133.65
2023-04-18T07:10:54.569Z,128.67
2023-04-18T07:11:54.389Z,127.08
2023-04-18T07:12:54.478Z,124.77
2023-04-18T07:13:54.504Z,120.47
2023-04-18T07:14:54.517Z,115.17
2023-04-18T07:15:54.533Z,113.88
2023-04-18T07:16:54.636Z,115.10
2023-04-18T07:17:54.723Z,111.40
2023-04-18T07:18:54.697Z,111.68
2023-04-18T07:19:54.803Z,110.73
2023-04-18T07:20:54.812Z,111.91
2023-04-18T07:21:54.911Z,110.03
2023-04-18T07:22:54.947Z,111.61
2023-04-18T07:23:55.004Z,109.05
2023-04-18T07:24:55.080Z,106.80
2023-04-18T07:25:55.109Z,108.58
2023-04-18T07:26:55.407Z,104.86
2023-04-18T07:27:55.266Z,102.46
2023-04-18T07:28:55.239Z,104.27
2023-04-18T07:29:55.327Z,101.62
2023-04-18T07:30:55.428Z,103.13
2023-04-18T07:31:55.457Z,104.60
2023-04-18T07:32:55.473Z,101.38
2023-04-18T07:33:55.524Z,99.92
2023-04-18T07:34:55.527Z,99.56
2023-04-18T07:35:55.597Z,98.62
2023-04-18T07:36:55.635Z,99.84
2023-04-18T07:37:55.652Z,99.07
2023-04-18T07:38:55.714Z,98.35
2023-04-18T07:39:55.755Z,101.44
2023-04-18T07:40:56.010Z,99.02
2023-04-18T07:41:56.036Z,101.20
2023-04-18T07:42:55.922Z,102.85
2023-04-18T07:43:55.960Z,109.29
2023-04-18T07:44:56.029Z,137.12
2023-04-18T07:45:56.562Z,142.76
2023-04-18T07:46:56.110Z,142.25
2023-04-18T07:47:56.200Z,142.13
2023-04-18T07:48:56.209Z,141.01
2023-04-18T07:49:56.235Z,140.49
2023-04-18T07:50:56.934Z,141.08
2023-04-18T07:51:56.306Z,143.71
2023-04-18T07:52:56.395Z,146.12
2023-04-18T07:53:56.461Z,149.83
2023-04-18T07:54:56.439Z,146.95
2023-04-18T07:55:56.471Z,150.03
2023-04-18T07:56:56.497Z,155.06
2023-04-18T07:57:56.530Z,156.82
2023-04-18T07:58:56.591Z,160.79
2023-04-18T07:59:56.604Z,165.73
2023-04-18T08:00:56.662Z,167.76
2023-04-18T08:01:56.681Z,171.88
2023-04-18T08:02:56.796Z,172.37
2023-04-18T08:03:56.789Z,175.28
2023-04-18T08:04:56.990Z,179.57
2023-04-18T08:05:56.803Z,180.43
2023-04-18T08:06:56.870Z,187.64
2023-04-18T08:07:56.915Z,185.15
2023-04-18T08:08:56.898Z,190.21
2023-04-18T08:09:56.974Z,190.91
2023-04-18T08:10:56.972Z,194.08
2023-04-18T08:11:56.989Z,197.04
2023-04-18T08:12:57.032Z,199.49
2023-04-18T08:13:57.070Z,200.54
2023-04-18T08:14:57.279Z,207.21
2023-04-18T08:15:57.524Z,206.02
2023-04-18T08:16:57.202Z,206.31
2023-04-18T08:17:57.266Z,207.24
2023-04-18T08:18:57.221Z,212.42
2023-04-18T08:19:57.279Z,211.66
2023-04-18T08:20:57.289Z,214.91
2023-04-18T08:21:57.320Z,218.51
2023-04-18T08:23:06.838Z,222.85
2023-04-18T08:23:58.346Z,223.05
2023-04-18T08:25:04.194Z,223.81
2023-04-18T08:25:58.327Z,223.21
2023-04-18T08:26:57.324Z,224.38
2023-04-18T08:27:57.304Z,227.73
2023-04-18T08:28:57.330Z,230.03
2023-04-18T08:29:57.294Z,235.92
2023-04-18T08:30:57.406Z,238.18
2023-04-18T08:31:57.435Z,236.44
2023-04-18T08:32:58.138Z,238.04
2023-04-18T08:33:57.286Z,241.10
2023-04-18T08:34:57.311Z,240.45
2023-04-18T08:35:57.255Z,249.88
2023-04-18T08:36:57.272Z,248.49
2023-04-18T08:37:57.275Z,248.39
2023-04-18T08:38:57.259Z,248.60
2023-04-18T08:39:57.254Z,248.80
2023-04-18T08:40:57.209Z,250.00
2023-04-18T08:41:57.246Z,249.67
2023-04-18T08:42:57.227Z,250.18
2023-04-18T08:43:57.340Z,250.00
2023-04-18T08:44:57.212Z,247.92
2023-04-18T08:45:57.524Z,181.64
2023-04-18T08:46:57.262Z,142.55
2023-04-18T08:47:57.366Z,120.16
2023-04-18T08:48:57.345Z,121.26
2023-04-18T08:49:57.381Z,127.50
2023-04-18T08:50:57.517Z,133.70
2023-04-18T08:51:57.439Z,136.29
2023-04-18T08:52:57.463Z,124.66
2023-04-18T08:53:57.491Z,120.25
2023-04-18T08:54:57.534Z,129.87
2023-04-18T08:55:57.556Z,122.90
2023-04-18T08:56:57.624Z,117.33
2023-04-18T08:57:57.658Z,69.11
2023-04-18T08:58:57.705Z,53.43
2023-04-18T08:59:57.743Z,35.33
2023-04-18T09:00:57.880Z,32.73
2023-04-18T09:01:57.869Z,27.46
2023-04-18T09:02:57.992Z,27.58
2023-04-18T09:03:57.954Z,18.69
2023-04-18T09:04:58.032Z,37.12
2023-04-18T09:05:58.088Z,51.24
2023-04-18T09:06:58.143Z,61.15
2023-04-18T09:07:58.180Z,67.86
2023-04-18T09:08:58.226Z,68.93
2023-04-18T09:09:58.309Z,71.93
2023-04-18T09:10:58.330Z,76.88
2023-04-18T09:11:58.400Z,76.93
2023-04-18T09:12:58.430Z,80.84
2023-04-18T09:13:58.467Z,83.79
2023-04-18T09:14:58.495Z,88.08
2023-04-18T09:15:58.538Z,92.69
2023-04-18T09:16:58.730Z,95.45
2023-04-18T09:17:58.778Z,100.23
2023-04-18T09:18:58.737Z,99.74
2023-04-18T09:19:58.661Z,104.46
2023-04-18T09:20:58.742Z,108.80
2023-04-18T09:21:58.747Z,115.53
2023-04-18T09:22:58.779Z,115.23
2023-04-18T09:23:58.797Z,117.75
2023-04-18T09:24:58.853Z,122.45
2023-04-18T09:25:58.908Z,143.99
2023-04-18T09:26:58.923Z,148.58
2023-04-18T09:27:58.910Z,149.87
2023-04-18T09:28:58.932Z,149.50
2023-04-18T09:29:58.978Z,149.87
2023-04-18T09:30:59.056Z,149.98
2023-04-18T09:31:59.012Z,152.66
2023-04-18T09:32:59.267Z,150.72
2023-04-18T09:33:59.068Z,147.55
2023-04-18T09:34:59.479Z,151.14
2023-04-18T09:35:59.148Z,152.14
2023-04-18T09:36:59.154Z,157.58
2023-04-18T09:37:59.128Z,154.84
2023-04-18T09:38:59.127Z,155.82
2023-04-18T09:39:59.480Z,157.36
2023-04-18T09:41:00.586Z,157.37
2023-04-18T09:41:59.172Z,158.91
2023-04-18T09:42:59.216Z,159.47
2023-04-18T09:43:59.207Z,160.06
2023-04-18T09:44:59.195Z,161.83
2023-04-18T09:45:59.297Z,160.97
2023-04-18T09:46:59.229Z,162.26
2023-04-18T09:47:59.299Z,162.44
2023-04-18T09:48:59.249Z,160.38
2023-04-18T09:49:59.286Z,162.15
2023-04-18T09:50:59.368Z,165.99
2023-04-18T09:51:59.536Z,162.52
2023-04-18T09:52:59.341Z,164.46
2023-04-18T09:53:59.350Z,164.49
2023-04-18T09:54:59.361Z,166.22
2023-04-18T09:55:59.392Z,170.64
2023-04-18T09:56:59.439Z,170.48
2023-04-18T09:57:59.432Z,172.39
2023-04-18T09:58:59.422Z,173.24
2023-04-18T09:59:59.474Z,171.13
2023-04-18T10:00:59.485Z,173.88
2023-04-18T10:01:59.703Z,174.18
2023-04-18T10:02:59.656Z,173.67
2023-04-18T10:03:59.631Z,174.31
2023-04-18T10:04:59.667Z,173.06
2023-04-18T10:05:59.613Z,173.33
2023-04-18T10:07:00.104Z,174.87
2023-04-18T10:07:59.667Z,176.16
2023-04-18T10:08:59.624Z,176.27
2023-04-18T10:09:59.708Z,177.47
2023-04-18T10:10:59.686Z,178.15
2023-04-18T10:11:59.828Z,175.46
2023-04-18T10:12:59.719Z,176.65
2023-04-18T10:13:59.739Z,178.41
2023-04-18T10:14:59.751Z,176.50
2023-04-18T10:15:59.826Z,177.01
2023-04-18T10:16:59.823Z,177.14
2023-04-18T10:18:05.360Z,177.59
2023-04-18T10:19:00.833Z,177.69
2023-04-18T10:19:59.805Z,177.87
2023-04-18T10:20:59.821Z,177.85
2023-04-18T10:21:59.824Z,179.39
2023-04-18T10:22:59.837Z,179.49
2023-04-18T10:23:59.807Z,181.35
2023-04-18T10:24:59.792Z,178.69
2023-04-18T10:25:59.824Z,179.84
2023-04-18T10:26:59.782Z,176.57
2023-04-18T10:27:59.761Z,178.38
2023-04-18T10:28:59.750Z,175.61
2023-04-18T10:29:59.756Z,177.38
2023-04-18T10:30:59.753Z,175.60
2023-04-18T10:31:59.914Z,178.96
2023-04-18T10:32:59.732Z,176.88
2023-04-18T10:34:04.653Z,177.25
2023-04-18T10:35:00.721Z,177.32
2023-04-18T10:35:59.691Z,173.91
2023-04-18T10:37:00.136Z,172.97
2023-04-18T10:38:00.053Z,171.33
2023-04-18T10:38:59.694Z,172.25
2023-04-18T10:39:59.696Z,171.07
2023-04-18T10:40:59.675Z,173.35
2023-04-18T10:41:59.694Z,178.82
2023-04-18T10:42:59.652Z,183.47
2023-04-18T10:43:59.659Z,184.86
2023-04-18T10:44:59.656Z,188.15
2023-04-18T10:45:59.640Z,192.88
2023-04-18T10:46:59.661Z,194.84
2023-04-18T10:47:59.627Z,195.39
2023-04-18T10:48:59.613Z,198.28
2023-04-18T10:49:59.613Z,197.18
2023-04-18T10:50:59.614Z,197.08
2023-04-18T10:52:00.101Z,195.10
2023-04-18T10:52:59.586Z,196.24
2023-04-18T10:53:59.564Z,197.67
2023-04-18T10:54:59.559Z,200.54
2023-04-18T10:55:59.582Z,199.02
2023-04-18T10:56:59.593Z,193.02
2023-04-18T10:57:59.545Z,193.14
2023-04-18T10:58:59.558Z,196.55
2023-04-18T10:59:59.546Z,196.76
2023-04-18T11:00:59.590Z,194.92
2023-04-18T11:01:59.576Z,194.91
2023-04-18T11:02:59.587Z,197.15
2023-04-18T11:03:59.621Z,202.73
2023-04-18T11:04:59.528Z,204.18
2023-04-18T11:05:59.531Z,209.37
2023-04-18T11:06:59.514Z,213.81
2023-04-18T11:07:59.473Z,217.85
2023-04-18T11:08:59.485Z,216.19
2023-04-18T11:09:59.500Z,222.82
2023-04-18T11:10:59.504Z,238.57
2023-04-18T11:11:59.642Z,241.69
2023-04-18T11:12:59.478Z,245.15
2023-04-18T11:13:59.453Z,250.00
2023-04-18T11:14:59.484Z,247.94
2023-04-18T11:15:59.489Z,421.63
2023-04-18T11:16:59.634Z,409.11
2023-04-18T11:17:59.660Z,357.29
2023-04-18T11:18:59.644Z,299.68
2023-04-18T11:19:59.720Z,262.81
2023-04-18T11:20:59.839Z,240.93
2023-04-18T11:21:59.860Z,233.45
2023-04-18T11:22:59.896Z,230.50
2023-04-18T11:23:59.932Z,227.24
2023-04-18T11:25:00.042Z,227.08
2023-04-18T11:26:00.097Z,223.90
2023-04-18T11:27:00.631Z,221.75
2023-04-18T11:28:00.236Z,219.45
2023-04-18T11:29:00.275Z,220.74
2023-04-18T11:30:00.321Z,221.72
2023-04-18T11:31:00.415Z,221.65
2023-04-18T11:32:00.636Z,224.60
2023-04-18T11:33:00.604Z,219.88
2023-04-18T11:34:00.556Z,218.27
2023-04-18T11:35:00.628Z,215.84
2023-04-18T11:36:00.662Z,214.28
2023-04-18T11:37:01.074Z,211.70
2023-04-18T11:38:00.811Z,210.96
2023-04-18T11:39:00.895Z,208.18
2023-04-18T11:40:00.937Z,207.76
2023-04-18T11:41:00.985Z,206.23
2023-04-18T11:42:01.074Z,204.51
2023-04-18T11:43:01.072Z,202.99
2023-04-18T11:44:01.111Z,202.25
2023-04-18T11:45:01.159Z,200.72
2023-04-18T11:46:01.241Z,199.46
2023-04-18T11:47:01.663Z,198.69
2023-04-18T11:48:01.306Z,196.14
2023-04-18T11:49:01.294Z,194.97
2023-04-18T11:50:01.380Z,192.81
2023-04-18T11:51:01.340Z,192.50
2023-04-18T11:52:01.383Z,189.86
2023-04-18T11:53:01.370Z,186.55
2023-04-18T11:54:01.407Z,186.40
2023-04-18T11:55:01.434Z,183.02
2023-04-18T11:56:01.476Z,180.79
2023-04-18T11:57:01.464Z,178.12
2023-04-18T11:58:01.491Z,178.09
2023-04-18T11:59:01.567Z,185.54
2023-04-18T12:00:01.545Z,184.96
2023-04-18T12:01:01.585Z,181.78
2023-04-18T12:02:12.622Z,182.84
2023-04-18T12:03:02.821Z,182.98
2023-04-18T12:04:01.822Z,183.06
2023-04-18T12:05:01.676Z,182.80
2023-04-18T12:06:01.659Z,182.20
2023-04-18T12:07:01.544Z,180.71
2023-04-18T12:08:01.498Z,179.20
2023-04-18T12:09:01.473Z,178.93
2023-04-18T12:10:01.492Z,177.96
2023-04-18T12:11:01.552Z,173.09
2023-04-18T12:12:01.496Z,171.09
2023-04-18T12:13:01.525Z,166.08
2023-04-18T12:14:03.612Z,166.59
2023-04-18T12:15:01.698Z,168.02
2023-04-18T12:16:01.860Z,166.74
2023-04-18T12:17:01.799Z,165.32
2023-04-18T12:18:01.991Z,165.20
2023-04-18T12:19:01.879Z,164.15
2023-04-18T12:20:01.963Z,162.91
2023-04-18T12:21:02.050Z,161.12
2023-04-18T12:22:02.048Z,158.05
2023-04-18T12:23:02.080Z,157.66
2023-04-18T12:24:02.129Z,155.85
2023-04-18T12:25:02.144Z,155.89
2023-04-18T12:26:02.222Z,156.98
2023-04-18T12:27:02.253Z,157.18
2023-04-18T12:28:02.250Z,154.74
2023-04-18T12:29:02.309Z,154.63
2023-04-18T12:30:02.382Z,153.22
2023-04-18T12:31:02.485Z,146.47
2023-04-18T12:32:02.531Z,143.97
2023-04-18T12:33:02.534Z,137.45
2023-04-18T12:34:02.536Z,139.52
2023-04-18T12:35:02.562Z,140.30
2023-04-18T12:36:02.588Z,139.08
2023-04-18T12:37:02.613Z,139.09
2023-04-18T12:38:02.621Z,138.80
2023-04-18T12:39:02.671Z,138.88
2023-04-18T12:40:02.688Z,138.80
2023-04-18T12:41:02.682Z,137.61
2023-04-18T12:42:04.642Z,135.88